Time;durP1;ratioP1;P1;durP2;ratioP2;P2;SDS_P1;SDS_P2;PMS_P1;PMS_P2;Temp;Humidity;BMP_temperature;BMP_pressure;BME280_temperature;BME280_humidity;BME280_pressure;Samples;Min_cycle;Max_cycle;Signal;HPM_P1;HPM_P2
2021/10/08 00:00:29;;;;;;;7.10;1.45;;;;;;;;;;5113655;28;20044;-75
2021/10/08 00:02:56;;;;;;;2.25;0.63;;;;;;;;;;5096128;28;20043;-78
2021/10/08 00:05:24;;;;;;;2.88;0.68;;;;;;;;;;5113916;28;20050;-74
2021/10/08 00:07:52;;;;;;;4.70;0.98;;;;;;;;;;5114287;28;20047;-75
2021/10/08 00:10:21;;;;;;;0.68;0.40;;;;;;;;;;5114521;28;20081;-75
2021/10/08 00:12:50;;;;;;;2.88;0.57;;;;;;;;;;5113775;28;20403;-77
2021/10/08 00:15:19;;;;;;;5.65;1.02;;;;;;;;;;5112894;28;20419;-75
2021/10/08 00:17:47;;;;;;;1.23;0.40;;;;;;;;;;5113787;28;20126;-75
2021/10/08 00:20:14;;;;;;;1.27;0.63;;;;;;;;;;5114082;28;20050;-73
2021/10/08 00:22:42;;;;;;;3.05;0.80;;;;;;;;;;5105128;28;20067;-77
2021/10/08 00:25:10;;;;;;;2.40;0.57;;;;;;;;;;5095428;28;20048;-77
2021/10/08 00:27:40;;;;;;;3.15;0.85;;;;;;;;;;5113880;28;20043;-73
2021/10/08 00:30:08;;;;;;;1.10;0.75;;;;;;;;;;5094911;28;20512;-74
2021/10/08 00:32:36;;;;;;;3.22;0.85;;;;;;;;;;5095288;28;20040;-77
2021/10/08 00:35:04;;;;;;;1.20;0.57;;;;;;;;;;5113685;28;20043;-75
2021/10/08 00:37:32;;;;;;;7.15;1.05;;;;;;;;;;5113547;28;20044;-73
2021/10/08 00:39:59;;;;;;;2.65;0.73;;;;;;;;;;5095445;28;20039;-75
2021/10/08 00:42:30;;;;;;;4.18;0.60;;;;;;;;;;5113594;28;20043;-77
2021/10/08 00:44:58;;;;;;;4.55;1.08;;;;;;;;;;5112919;28;20059;-77
2021/10/08 00:47:26;;;;;;;3.22;0.88;;;;;;;;;;5078908;28;20641;-77
2021/10/08 00:49:54;;;;;;;3.25;0.90;;;;;;;;;;5095437;28;20126;-77
2021/10/08 00:52:22;;;;;;;3.92;1.00;;;;;;;;;;5094953;28;20134;-74
2021/10/08 00:54:49;;;;;;;1.80;0.70;;;;;;;;;;5113241;28;20040;-74
2021/10/08 00:57:17;;;;;;;4.32;1.00;;;;;;;;;;5095040;28;20117;-75
2021/10/08 00:59:45;;;;;;;3.25;0.95;;;;;;;;;;5094616;28;20452;-75
2021/10/08 01:02:14;;;;;;;1.27;0.60;;;;;;;;;;5078678;28;20046;-77
2021/10/08 01:04:41;;;;;;;4.32;0.80;;;;;;;;;;5078388;28;20048;-74
2021/10/08 01:07:09;;;;;;;2.85;0.60;;;;;;;;;;5094553;28;20044;-73
2021/10/08 01:09:37;;;;;;;2.03;0.68;;;;;;;;;;5095364;28;20123;-73
2021/10/08 01:12:05;;;;;;;3.30;0.80;;;;;;;;;;5112736;28;20044;-76
2021/10/08 01:14:37;;;;;;;;;;;;;;;;;;5094787;28;20062;-73
2021/10/08 01:17:15;;;;;;;1.15;0.50;;;;;;;;;;5095011;28;19926;-76
2021/10/08 01:19:46;;;;;;;3.30;0.80;;;;;;;;;;5094918;28;20051;-75
2021/10/08 01:22:15;;;;;;;3.92;0.75;;;;;;;;;;5095095;28;20050;-74
2021/10/08 01:24:46;;;;;;;3.50;0.73;;;;;;;;;;5095239;28;20412;-73
2021/10/08 01:27:18;;;;;;;1.75;0.57;;;;;;;;;;5116271;28;20507;-74
2021/10/08 01:29:58;;;;;;;3.35;0.65;;;;;;;;;;5098864;28;20054;-77
2021/10/08 01:32:38;;;;;;;4.05;0.85;;;;;;;;;;5098376;28;20071;-73
2021/10/08 01:35:07;;;;;;;4.07;0.70;;;;;;;;;;5098534;28;20054;-73
2021/10/08 01:37:36;;;;;;;1.60;0.70;;;;;;;;;;5082060;28;20127;-75
2021/10/08 01:40:04;;;;;;;1.95;0.80;;;;;;;;;;5116866;28;20054;-75
2021/10/08 01:42:35;;;;;;;2.80;0.70;;;;;;;;;;5098291;28;20496;-75
2021/10/08 01:45:04;;;;;;;0.85;0.60;;;;;;;;;;5097893;28;20051;-77
2021/10/08 01:47:32;;;;;;;4.35;0.93;;;;;;;;;;5116664;28;20130;-75
2021/10/08 01:50:00;;;;;;;1.00;0.57;;;;;;;;;;5098807;28;20404;-76
2021/10/08 01:52:33;;;;;;;2.13;0.75;;;;;;;;;;5098063;28;20058;-73
2021/10/08 01:55:01;;;;;;;4.40;0.80;;;;;;;;;;5097847;28;20052;-75
2021/10/08 01:57:32;;;;;;;1.88;0.65;;;;;;;;;;5097902;28;20127;-72
2021/10/08 02:00:00;;;;;;;2.45;0.57;;;;;;;;;;5081726;28;20047;-78
2021/10/08 02:02:27;;;;;;;1.20;0.65;;;;;;;;;;5098304;28;20527;-73
2021/10/08 02:04:58;;;;;;;2.72;0.90;;;;;;;;;;5097964;28;20389;-77
2021/10/08 02:07:28;;;;;;;2.40;0.90;;;;;;;;;;5098143;28;20048;-73
2021/10/08 02:09:56;;;;;;;3.53;0.52;;;;;;;;;;5098118;28;20122;-73
2021/10/08 02:12:27;;;;;;;3.72;0.80;;;;;;;;;;5097460;28;20085;-78
2021/10/08 02:14:56;;;;;;;3.78;0.70;;;;;;;;;;5097771;28;20055;-77
2021/10/08 02:17:24;;;;;;;1.65;0.63;;;;;;;;;;5097636;28;20040;-74
2021/10/08 02:19:53;;;;;;;3.92;0.80;;;;;;;;;;5097879;28;20036;-73
2021/10/08 02:22:23;;;;;;;1.67;0.60;;;;;;;;;;5097545;28;20096;-75
2021/10/08 02:24:52;;;;;;;1.52;0.45;;;;;;;;;;5097286;28;20043;-74
2021/10/08 02:27:21;;;;;;;2.90;0.63;;;;;;;;;;5097313;28;20063;-77
2021/10/08 02:29:50;;;;;;;2.95;0.73;;;;;;;;;;5097993;28;20131;-75
2021/10/08 02:32:18;;;;;;;1.25;0.80;;;;;;;;;;5097331;28;20047;-72
2021/10/08 02:34:48;;;;;;;2.38;0.68;;;;;;;;;;5097393;28;20474;-75
2021/10/08 02:37:15;;;;;;;4.13;0.80;;;;;;;;;;5097629;28;20039;-74
2021/10/08 02:39:46;;;;;;;1.38;0.70;;;;;;;;;;5097268;28;20047;-73
2021/10/08 02:42:14;;;;;;;1.27;0.60;;;;;;;;;;5097248;28;20044;-73
2021/10/08 02:44:41;;;;;;;1.83;0.80;;;;;;;;;;5080509;28;20074;-73
2021/10/08 02:47:10;;;;;;;2.20;0.80;;;;;;;;;;5096916;28;20047;-75
2021/10/08 02:49:38;;;;;;;3.00;0.52;;;;;;;;;;5115325;28;20071;-75
2021/10/08 02:52:08;;;;;;;2.83;0.70;;;;;;;;;;5096886;28;20039;-75
2021/10/08 02:54:45;;;;;;;0.65;0.57;;;;;;;;;;5096419;28;20466;-73
2021/10/08 02:57:12;;;;;;;4.95;1.17;;;;;;;;;;5097051;28;20066;-76
2021/10/08 02:59:40;;;;;;;1.63;0.77;;;;;;;;;;5097290;28;20043;-73
2021/10/08 03:02:07;;;;;;;2.35;0.73;;;;;;;;;;5079482;28;20039;-75
2021/10/08 03:04:41;;;;;;;5.70;2.22;;;;;;;;;;5115080;28;20126;-74
2021/10/08 03:07:12;;;;;;;6.30;2.20;;;;;;;;;;5097089;28;20064;-75
2021/10/08 03:09:41;;;;;;;3.58;1.20;;;;;;;;;;5096309;28;20077;-73
2021/10/08 03:12:09;;;;;;;2.55;0.90;;;;;;;;;;5114689;28;20036;-75
2021/10/08 03:14:40;;;;;;;4.05;0.88;;;;;;;;;;5096254;28;20496;-74
2021/10/08 03:17:08;;;;;;;2.03;1.17;;;;;;;;;;5096797;28;20044;-75
2021/10/08 03:19:36;;;;;;;2.05;0.95;;;;;;;;;;5114946;28;20042;-74
2021/10/08 03:22:04;;;;;;;2.45;1.45;;;;;;;;;;5096030;28;20187;-76
2021/10/08 03:24:32;;;;;;;3.03;1.42;;;;;;;;;;5095968;28;20048;-75
2021/10/08 03:27:00;;;;;;;2.95;1.10;;;;;;;;;;5096253;28;20050;-76
2021/10/08 03:29:28;;;;;;;3.75;1.23;;;;;;;;;;5079825;28;20054;-77
2021/10/08 03:31:57;;;;;;;1.90;0.98;;;;;;;;;;5079847;28;20054;-77
2021/10/08 03:34:25;;;;;;;3.95;1.33;;;;;;;;;;5096052;28;20407;-72
2021/10/08 03:36:57;;;;;;;3.10;2.00;;;;;;;;;;5096027;28;20048;-75
2021/10/08 03:39:30;;;;;;;5.33;2.70;;;;;;;;;;5096227;28;20048;-73
2021/10/08 03:41:58;;;;;;;4.60;2.30;;;;;;;;;;5079432;28;20119;-77
2021/10/08 03:44:34;;;;;;;4.20;2.33;;;;;;;;;;5096262;28;20039;-77
2021/10/08 03:47:13;;;;;;;2.72;1.92;;;;;;;;;;5114861;28;20558;-73
2021/10/08 03:49:43;;;;;;;3.80;2.00;;;;;;;;;;5113977;28;20040;-73
2021/10/08 03:52:11;;;;;;;3.85;2.13;;;;;;;;;;5095891;28;20411;-75
2021/10/08 03:54:39;;;;;;;5.88;2.08;;;;;;;;;;5113610;28;20049;-73
2021/10/08 03:57:06;;;;;;;3.60;1.52;;;;;;;;;;5113942;28;20041;-77
2021/10/08 03:59:35;;;;;;;4.78;1.70;;;;;;;;;;5096319;28;20039;-76
2021/10/08 04:02:02;;;;;;;2.97;1.00;;;;;;;;;;5095808;28;20036;-77
2021/10/08 04:04:33;;;;;;;4.78;0.90;;;;;;;;;;5096006;28;20104;-73
2021/10/08 04:07:01;;;;;;;3.05;0.90;;;;;;;;;;5095900;28;20047;-73
2021/10/08 04:09:31;;;;;;;9.02;1.00;;;;;;;;;;5095983;28;20112;-74
2021/10/08 04:11:59;;;;;;;3.00;1.17;;;;;;;;;;5078766;28;20075;-74
2021/10/08 04:14:30;;;;;;;2.75;1.00;;;;;;;;;;5095346;28;20135;-74
2021/10/08 04:16:59;;;;;;;1.35;0.75;;;;;;;;;;5095464;28;20105;-73
2021/10/08 04:19:26;;;;;;;1.75;0.70;;;;;;;;;;5095659;28;20040;-75
2021/10/08 04:21:56;;;;;;;8.52;1.05;;;;;;;;;;5094773;28;20054;-75
2021/10/08 04:24:23;;;;;;;3.13;1.20;;;;;;;;;;5078921;28;20048;-74
2021/10/08 04:26:52;;;;;;;2.47;0.80;;;;;;;;;;5095680;28;20065;-74
2021/10/08 04:29:21;;;;;;;6.55;1.88;;;;;;;;;;5095485;28;20048;-77
2021/10/08 04:31:49;;;;;;;3.13;1.20;;;;;;;;;;5094980;28;20060;-74
2021/10/08 04:34:17;;;;;;;2.75;1.08;;;;;;;;;;5113417;28;20063;-76
2021/10/08 04:36:45;;;;;;;2.42;0.70;;;;;;;;;;5113020;28;20096;-77
2021/10/08 04:39:13;;;;;;;6.53;1.00;;;;;;;;;;5095152;28;20557;-74
2021/10/08 04:41:41;;;;;;;2.40;0.70;;;;;;;;;;5095218;28;20051;-74
2021/10/08 04:44:15;;;;;;;2.47;1.05;;;;;;;;;;5079352;28;20047;-74
2021/10/08 04:46:44;;;;;;;5.20;1.92;;;;;;;;;;5095081;28;20059;-77
2021/10/08 04:49:12;;;;;;;5.03;1.92;;;;;;;;;;5094832;28;20047;-74
2021/10/08 04:51:43;;;;;;;2.97;1.52;;;;;;;;;;5094270;28;20051;-75
2021/10/08 04:54:11;;;;;;;5.68;1.40;;;;;;;;;;5094952;28;20043;-74
2021/10/08 04:56:40;;;;;;;4.45;1.30;;;;;;;;;;5077964;28;20096;-72
2021/10/08 04:59:08;;;;;;;3.05;1.30;;;;;;;;;;5095129;28;20043;-74
2021/10/08 05:01:38;;;;;;;4.10;1.15;;;;;;;;;;5097651;28;20043;-74
2021/10/08 05:04:06;;;;;;;2.92;1.35;;;;;;;;;;5099164;28;20044;-74
2021/10/08 05:06:35;;;;;;;2.47;1.50;;;;;;;;;;5098914;28;20074;-75
2021/10/08 05:09:03;;;;;;;4.45;2.45;;;;;;;;;;5099208;28;20067;-79
2021/10/08 05:11:33;;;;;;;3.75;2.05;;;;;;;;;;5098911;28;20143;-75
2021/10/08 05:14:00;;;;;;;4.47;1.73;;;;;;;;;;5098800;28;20488;-74
2021/10/08 05:16:29;;;;;;;4.05;2.15;;;;;;;;;;5098952;28;20043;-80
2021/10/08 05:18:58;;;;;;;5.65;3.28;;;;;;;;;;5082226;28;20063;-77
2021/10/08 05:21:29;;;;;;;4.53;1.98;;;;;;;;;;5098814;28;20054;-75
2021/10/08 05:23:57;;;;;;;4.55;1.55;;;;;;;;;;5098406;28;20071;-72
2021/10/08 05:26:24;;;;;;;6.20;1.63;;;;;;;;;;5098394;28;20353;-76
2021/10/08 05:28:53;;;;;;;4.68;1.80;;;;;;;;;;5096451;28;20048;-78
2021/10/08 05:31:23;;;;;;;3.72;1.20;;;;;;;;;;5096316;28;20036;-72
2021/10/08 05:33:51;;;;;;;3.03;1.67;;;;;;;;;;5098006;28;20092;-77
2021/10/08 05:36:21;;;;;;;7.50;2.05;;;;;;;;;;5098003;28;20097;-75
2021/10/08 05:38:48;;;;;;;5.13;2.17;;;;;;;;;;5097607;28;20035;-76
2021/10/08 05:41:17;;;;;;;2.72;1.80;;;;;;;;;;5081399;28;20145;-74
2021/10/08 05:43:46;;;;;;;5.43;1.80;;;;;;;;;;5097479;28;20407;-76
2021/10/08 05:46:18;;;;;;;7.03;2.30;;;;;;;;;;5097517;28;20420;-76
2021/10/08 05:48:46;;;;;;;3.55;1.80;;;;;;;;;;5097801;28;20436;-75
2021/10/08 05:51:13;;;;;;;7.68;2.70;;;;;;;;;;5097722;28;20078;-74
2021/10/08 05:53:41;;;;;;;9.23;2.88;;;;;;;;;;5097663;28;20043;-73
2021/10/08 05:56:09;;;;;;;6.07;2.50;;;;;;;;;;5076556;28;20040;-77
2021/10/08 05:58:38;;;;;;;5.97;2.47;;;;;;;;;;5077595;28;20044;-76
2021/10/08 06:01:06;;;;;;;5.82;2.67;;;;;;;;;;5072784;28;20139;-77
2021/10/08 06:03:33;;;;;;;4.82;2.47;;;;;;;;;;5096454;28;20051;-74
2021/10/08 06:06:01;;;;;;;6.72;2.80;;;;;;;;;;5082953;28;20592;-74
2021/10/08 06:08:31;;;;;;;5.88;3.20;;;;;;;;;;5083847;28;20052;-77
2021/10/08 06:10:58;;;;;;;10.10;3.13;;;;;;;;;;5090594;28;20048;-75
2021/10/08 06:13:28;;;;;;;5.63;3.00;;;;;;;;;;5077160;28;20078;-75
2021/10/08 06:15:56;;;;;;;8.75;3.08;;;;;;;;;;5077554;28;20040;-78
2021/10/08 06:18:25;;;;;;;5.18;2.60;;;;;;;;;;5077253;28;20122;-75
2021/10/08 06:20:53;;;;;;;5.90;2.40;;;;;;;;;;5077276;28;20094;-77
2021/10/08 06:23:23;;;;;;;6.32;2.97;;;;;;;;;;5095612;28;20105;-75
2021/10/08 06:25:51;;;;;;;8.95;3.15;;;;;;;;;;5076697;28;20078;-77
2021/10/08 06:28:22;;;;;;;7.32;2.83;;;;;;;;;;5076698;28;20048;-77
2021/10/08 06:30:50;;;;;;;5.75;2.33;;;;;;;;;;5060728;28;20047;-76
2021/10/08 06:33:19;;;;;;;6.65;2.63;;;;;;;;;;5077303;28;20135;-73
2021/10/08 06:35:47;;;;;;;7.85;2.80;;;;;;;;;;5077105;28;20046;-75
2021/10/08 06:38:15;;;;;;;7.20;2.45;;;;;;;;;;5076232;28;20143;-75
2021/10/08 06:40:43;;;;;;;6.95;2.42;;;;;;;;;;5077140;28;20052;-75
2021/10/08 06:43:13;;;;;;;5.78;2.20;;;;;;;;;;5076986;28;20089;-73
2021/10/08 06:45:55;;;;;;;6.13;2.10;;;;;;;;;;5076970;28;20052;-75
2021/10/08 06:48:27;;;;;;;3.38;1.77;;;;;;;;;;5076929;28;20098;-75
2021/10/08 06:50:57;;;;;;;5.90;2.30;;;;;;;;;;5060449;28;20075;-75
2021/10/08 06:53:29;;;;;;;3.95;1.50;;;;;;;;;;5076952;28;20047;-75
2021/10/08 06:55:56;;;;;;;4.72;1.60;;;;;;;;;;5094800;28;20535;-76
2021/10/08 06:58:44;;;;;;;5.10;1.35;;;;;;;;;;5094527;28;20047;-76
2021/10/08 07:01:15;;;;;;;8.30;1.13;;;;;;;;;;5076805;28;20044;-76
2021/10/08 07:03:45;;;;;;;10.63;1.70;;;;;;;;;;5076677;28;20044;-76
2021/10/08 07:06:15;;;;;;;6.15;1.83;;;;;;;;;;5076292;28;20101;-76
2021/10/08 07:08:42;;;;;;;7.63;1.50;;;;;;;;;;5076466;28;20046;-76
2021/10/08 07:11:12;;;;;;;5.60;1.20;;;;;;;;;;5060488;28;20153;-76
2021/10/08 07:13:49;;;;;;;5.65;1.25;;;;;;;;;;5076438;28;20087;-76
2021/10/08 07:16:17;;;;;;;7.00;1.52;;;;;;;;;;5093669;28;20124;-74
2021/10/08 07:18:52;;;;;;;2.83;1.38;;;;;;;;;;5094398;28;20382;-74
2021/10/08 07:21:25;;;;;;;4.60;2.30;;;;;;;;;;5094232;28;20040;-76
2021/10/08 07:23:55;;;;;;;2.83;0.95;;;;;;;;;;5075516;28;20043;-75
2021/10/08 07:26:24;;;;;;;2.40;1.00;;;;;;;;;;5094183;28;20098;-78
2021/10/08 07:28:51;;;;;;;5.45;1.33;;;;;;;;;;5076081;28;20397;-73
2021/10/08 07:31:21;;;;;;;6.93;1.50;;;;;;;;;;5094090;28;20447;-73
2021/10/08 07:33:49;;;;;;;8.68;1.63;;;;;;;;;;5075567;28;20040;-75
2021/10/08 07:36:20;;;;;;;6.07;1.02;;;;;;;;;;5092533;28;20040;-76
2021/10/08 07:38:48;;;;;;;4.22;1.02;;;;;;;;;;5092280;28;20123;-76
2021/10/08 07:41:16;;;;;;;6.15;1.33;;;;;;;;;;5091870;28;20064;-75
2021/10/08 07:43:51;;;;;;;2.40;0.95;;;;;;;;;;5081558;28;20362;-74
2021/10/08 07:46:18;;;;;;;4.38;1.50;;;;;;;;;;5114192;28;20043;-75
2021/10/08 07:48:47;;;;;;;3.53;1.30;;;;;;;;;;5114248;28;20480;-76
2021/10/08 07:51:17;;;;;;;3.22;1.17;;;;;;;;;;5114165;28;20126;-75
2021/10/08 07:53:46;;;;;;;2.78;1.17;;;;;;;;;;5096338;28;20047;-76
2021/10/08 07:56:14;;;;;;;3.38;1.20;;;;;;;;;;5114086;28;20419;-77
2021/10/08 07:58:41;;;;;;;3.60;1.67;;;;;;;;;;5113903;28;20039;-76
2021/10/08 08:01:10;;;;;;;4.93;0.98;;;;;;;;;;5113599;28;20046;-76
2021/10/08 08:03:38;;;;;;;3.90;1.17;;;;;;;;;;5114241;28;20046;-74
2021/10/08 08:06:13;;;;;;;3.45;1.27;;;;;;;;;;5114067;28;20496;-76
2021/10/08 08:08:43;;;;;;;6.65;1.48;;;;;;;;;;5095999;28;20127;-75
2021/10/08 08:11:11;;;;;;;2.47;1.38;;;;;;;;;;5113943;28;20175;-73
2021/10/08 08:13:39;;;;;;;1.70;1.00;;;;;;;;;;5096067;28;20376;-75
2021/10/08 08:16:08;;;;;;;3.10;1.20;;;;;;;;;;5114118;28;20434;-76
2021/10/08 08:18:36;;;;;;;3.38;1.33;;;;;;;;;;5113921;28;20118;-74
2021/10/08 08:21:06;;;;;;;3.72;1.38;;;;;;;;;;5112746;28;20123;-76
2021/10/08 08:23:34;;;;;;;2.05;0.90;;;;;;;;;;5094748;28;20392;-74
2021/10/08 08:26:02;;;;;;;8.52;1.08;;;;;;;;;;5113372;28;20381;-76
2021/10/08 08:28:29;;;;;;;1.88;1.08;;;;;;;;;;5095338;28;20540;-76
2021/10/08 08:30:58;;;;;;;3.38;0.93;;;;;;;;;;5112946;28;20050;-76
2021/10/08 08:33:25;;;;;;;3.33;1.02;;;;;;;;;;5113565;28;20048;-76
2021/10/08 08:35:56;;;;;;;4.30;1.27;;;;;;;;;;5113385;28;20122;-75
2021/10/08 08:38:24;;;;;;;3.50;1.05;;;;;;;;;;5113013;28;20046;-76
2021/10/08 08:40:54;;;;;;;5.50;1.35;;;;;;;;;;5113291;28;20039;-76
2021/10/08 08:43:22;;;;;;;2.70;1.35;;;;;;;;;;5113075;28;20182;-73
2021/10/08 08:45:49;;;;;;;6.18;1.20;;;;;;;;;;5111283;28;20055;-74
2021/10/08 08:48:17;;;;;;;2.42;1.42;;;;;;;;;;5094713;28;20469;-77
2021/10/08 08:50:47;;;;;;;5.93;1.70;;;;;;;;;;5095555;28;20043;-78
2021/10/08 08:53:15;;;;;;;4.32;1.80;;;;;;;;;;5113294;28;20051;-76
2021/10/08 08:55:43;;;;;;;2.20;1.42;;;;;;;;;;5113368;28;20050;-78
2021/10/08 08:58:11;;;;;;;3.22;1.67;;;;;;;;;;5113442;28;20380;-76
2021/10/08 09:00:39;;;;;;;3.53;1.90;;;;;;;;;;5113306;28;20046;-74
2021/10/08 09:03:16;;;;;;;4.07;1.60;;;;;;;;;;5113457;28;20039;-74
2021/10/08 09:05:46;;;;;;;3.13;1.42;;;;;;;;;;5113411;28;20044;-76
2021/10/08 09:08:14;;;;;;;2.90;1.17;;;;;;;;;;5095272;28;20050;-74
2021/10/08 09:10:46;;;;;;;3.78;1.08;;;;;;;;;;5109099;28;20131;-77
2021/10/08 09:13:17;;;;;;;3.30;1.27;;;;;;;;;;5111111;28;20121;-77
2021/10/08 09:15:52;;;;;;;1.50;0.75;;;;;;;;;;5111010;28;20498;-75
2021/10/08 09:18:21;;;;;;;1.50;0.90;;;;;;;;;;5110933;28;20454;-78
2021/10/08 09:21:08;;;;;;;1.73;0.80;;;;;;;;;;5092995;28;20154;-74
2021/10/08 09:23:50;;;;;;;2.72;1.00;;;;;;;;;;5111007;28;20480;-77
2021/10/08 09:26:22;;;;;;;2.63;1.00;;;;;;;;;;5110889;28;20054;-78
2021/10/08 09:29:03;;;;;;;1.83;0.85;;;;;;;;;;5110980;28;20147;-76
2021/10/08 09:31:41;;;;;;;2.75;0.80;;;;;;;;;;5092795;28;20139;-76
2021/10/08 09:34:21;;;;;;;1.17;0.88;;;;;;;;;;5092565;28;20418;-78
2021/10/08 09:36:55;;;;;;;2.20;0.98;;;;;;;;;;5096023;28;20064;-78
2021/10/08 09:39:31;;;;;;;2.92;0.80;;;;;;;;;;5110704;28;20808;-74
2021/10/08 09:42:01;;;;;;;3.00;0.68;;;;;;;;;;5110580;28;20060;-77
2021/10/08 09:44:30;;;;;;;3.05;1.00;;;;;;;;;;5110507;28;20126;-79
2021/10/08 09:47:16;;;;;;;2.00;0.90;;;;;;;;;;5111635;28;20157;-79
2021/10/08 09:49:46;;;;;;;2.75;0.50;;;;;;;;;;5113502;28;20040;-78
2021/10/08 09:52:24;;;;;;;1.58;0.65;;;;;;;;;;5094950;28;20044;-74
2021/10/08 09:54:53;;;;;;;0.80;0.80;;;;;;;;;;5113386;28;20053;-77
2021/10/08 09:57:22;;;;;;;2.47;0.57;;;;;;;;;;5092727;28;20043;-77
2021/10/08 09:59:51;;;;;;;1.10;0.47;;;;;;;;;;5113472;28;20043;-77
2021/10/08 10:02:22;;;;;;;0.68;0.52;;;;;;;;;;5113546;28;20050;-76
2021/10/08 10:04:51;;;;;;;2.17;0.73;;;;;;;;;;5114255;28;20069;-77
2021/10/08 10:07:22;;;;;;;0.80;0.63;;;;;;;;;;5096033;28;20039;-76
2021/10/08 10:09:51;;;;;;;2.05;0.70;;;;;;;;;;5113521;28;20039;-77
2021/10/08 10:12:35;;;;;;;2.13;0.93;;;;;;;;;;5113480;28;20051;-78
2021/10/08 10:15:06;;;;;;;5.63;0.93;;;;;;;;;;5114153;28;20139;-79
2021/10/08 10:17:37;;;;;;;3.35;0.80;;;;;;;;;;5100889;28;20063;-74
2021/10/08 10:20:05;;;;;;;1.75;0.63;;;;;;;;;;5095024;28;20040;-76
2021/10/08 10:22:35;;;;;;;3.38;1.05;;;;;;;;;;5094441;28;20043;-74
2021/10/08 10:25:04;;;;;;;3.95;0.70;;;;;;;;;;5095010;28;20069;-75
2021/10/08 10:27:33;;;;;;;2.53;0.85;;;;;;;;;;5095452;28;20544;-75
2021/10/08 10:30:01;;;;;;;1.83;0.68;;;;;;;;;;5095025;28;20052;-74
2021/10/08 10:32:28;;;;;;;1.52;0.70;;;;;;;;;;5095589;28;20139;-76
2021/10/08 10:34:58;;;;;;;2.65;0.60;;;;;;;;;;5078051;28;20466;-74
2021/10/08 10:37:45;;;;;;;1.35;0.80;;;;;;;;;;5095127;28;20434;-76
2021/10/08 10:40:23;;;;;;;2.40;0.75;;;;;;;;;;5094976;28;20040;-76
2021/10/08 10:43:27;;;;;;;2.58;0.73;;;;;;;;;;5076861;28;20089;-74
2021/10/08 10:46:16;;;;;;;1.40;0.57;;;;;;;;;;4992806;28;20512;-76
2021/10/08 10:48:46;;;;;;;1.35;0.60;;;;;;;;;;5091570;28;20662;-74
2021/10/08 10:51:21;;;;;;;1.75;0.70;;;;;;;;;;5094945;28;20572;-78
2021/10/08 10:53:54;;;;;;;2.22;0.85;;;;;;;;;;5094882;28;20044;-76
2021/10/08 10:56:36;;;;;;;3.28;0.88;;;;;;;;;;5102147;28;20116;-73
2021/10/08 10:59:23;;;;;;;3.50;0.85;;;;;;;;;;5112441;28;20407;-76
2021/10/08 11:02:20;;;;;;;1.98;0.95;;;;;;;;;;5113027;28;20075;-76
2021/10/08 11:04:55;;;;;;;1.15;0.68;;;;;;;;;;5074397;28;20052;-75
2021/10/08 11:07:24;;;;;;;4.00;1.05;;;;;;;;;;5112144;28;20530;-76
2021/10/08 11:10:11;;;;;;;4.10;0.90;;;;;;;;;;5112302;28;20382;-76
2021/10/08 11:12:41;;;;;;;2.85;0.93;;;;;;;;;;5096967;28;20446;-75
2021/10/08 11:15:21;;;;;;;2.85;0.90;;;;;;;;;;5094385;28;20067;-76
2021/10/08 11:17:53;;;;;;;2.47;0.93;;;;;;;;;;5111417;28;20052;-76
2021/10/08 11:23:03;;;;;;;1.95;1.00;;;;;;;;;;5110935;28;20032;-74
2021/10/08 11:25:31;;;;;;;5.45;4.40;;;;;;;;;;5108439;28;20498;-77
2021/10/08 11:27:59;;;;;;;5.97;3.60;;;;;;;;;;5111407;28;20053;-76
2021/10/08 11:30:29;;;;;;;6.15;3.60;;;;;;;;;;5110959;28;20083;-73
2021/10/08 11:32:58;;;;;;;5.38;2.50;;;;;;;;;;5111099;28;20485;-73
2021/10/08 11:35:30;;;;;;;4.53;2.15;;;;;;;;;;5111412;28;20040;-75
2021/10/08 11:37:58;;;;;;;2.42;1.30;;;;;;;;;;5089702;28;20044;-73
2021/10/08 11:40:31;;;;;;;5.70;0.90;;;;;;;;;;5110337;28;20127;-73
2021/10/08 11:43:04;;;;;;;6.30;1.45;;;;;;;;;;5101499;28;20063;-73
2021/10/08 11:45:45;;;;;;;3.10;0.90;;;;;;;;;;5159895;23;20519;-72
2021/10/08 11:51:01;;;;;;;4.13;0.63;;;;;;;;;;5109378;28;20036;-74
2021/10/08 11:53:45;;;;;;;3.20;0.90;;;;;;;;;;5113129;28;20054;-74
2021/10/08 11:56:22;;;;;;;1.75;0.85;;;;;;;;;;5113609;28;20040;-74
2021/10/08 11:58:54;;;;;;;3.03;1.45;;;;;;;;;;5113577;28;20085;-74
2021/10/08 12:01:23;;;;;;;4.85;1.20;;;;;;;;;;5113533;28;20034;-75
2021/10/08 12:03:50;;;;;;;2.88;1.20;;;;;;;;;;5112408;28;20089;-74
2021/10/08 12:06:22;;;;;;;2.60;1.15;;;;;;;;;;5112468;28;20047;-74
2021/10/08 12:09:01;;;;;;;6.75;1.50;;;;;;;;;;5095908;28;20055;-74
2021/10/08 12:11:28;;;;;;;;;;;;;;;;;;5113328;28;20062;-74
2021/10/08 12:14:04;;;;;;;5.53;1.02;;;;;;;;;;5095157;28;19959;-74
2021/10/08 12:16:38;;;;;;;2.70;1.17;;;;;;;;;;5113441;28;20032;-74
2021/10/08 12:19:06;;;;;;;3.05;1.08;;;;;;;;;;5108170;28;20081;-74
2021/10/08 12:21:39;;;;;;;2.83;1.20;;;;;;;;;;5110655;28;20043;-76
2021/10/08 12:24:16;;;;;;;4.45;1.45;;;;;;;;;;5092605;28;20075;-76
2021/10/08 12:26:51;;;;;;;3.28;0.98;;;;;;;;;;5110618;28;20446;-76
2021/10/08 12:29:19;;;;;;;1.90;1.13;;;;;;;;;;5091996;28;20147;-73
2021/10/08 12:31:49;;;;;;;2.72;1.20;;;;;;;;;;5110291;28;20602;-75
2021/10/08 12:34:33;;;;;;;2.85;1.08;;;;;;;;;;5110174;28;20040;-73
2021/10/08 12:37:02;;;;;;;2.10;0.90;;;;;;;;;;5110618;28;20135;-75
2021/10/08 12:39:37;;;;;;;4.28;1.00;;;;;;;;;;5093213;28;20461;-76
2021/10/08 12:42:12;;;;;;;2.15;1.00;;;;;;;;;;5109746;28;20463;-75
2021/10/08 12:44:48;;;;;;;4.15;1.20;;;;;;;;;;5110359;28;20450;-74
2021/10/08 12:47:27;;;;;;;3.90;0.88;;;;;;;;;;5110101;28;20078;-73
2021/10/08 12:50:02;;;;;;;1.50;0.80;;;;;;;;;;5091234;28;20043;-73
2021/10/08 12:52:51;;;;;;;6.65;0.85;;;;;;;;;;5109948;28;20488;-75
2021/10/08 12:55:20;;;;;;;2.65;0.90;;;;;;;;;;5109824;28;20047;-73
2021/10/08 12:58:05;;;;;;;0.85;0.70;;;;;;;;;;5109918;28;20492;-76
2021/10/08 13:00:36;;;;;;;2.72;0.95;;;;;;;;;;5110540;28;20044;-75
2021/10/08 13:03:04;;;;;;;1.13;1.02;;;;;;;;;;5109777;28;20479;-76
2021/10/08 13:05:43;;;;;;;3.72;0.93;;;;;;;;;;5091684;28;20093;-74
2021/10/08 13:08:18;;;;;;;3.05;0.77;;;;;;;;;;5109619;28;20039;-73
2021/10/08 13:11:09;;;;;;;6.70;1.17;;;;;;;;;;5110496;28;20453;-75
2021/10/08 13:13:46;;;;;;;2.15;0.70;;;;;;;;;;5094678;28;20055;-75
2021/10/08 13:16:29;;;;;;;1.13;0.80;;;;;;;;;;5091754;28;20480;-74
2021/10/08 13:18:58;;;;;;;2.15;0.90;;;;;;;;;;5109360;28;20380;-75
2021/10/08 13:21:29;;;;;;;0.88;0.57;;;;;;;;;;5075464;28;20642;-76
2021/10/08 13:23:57;;;;;;;2.90;0.90;;;;;;;;;;5113754;28;20044;-75
2021/10/08 13:26:25;;;;;;;2.03;0.75;;;;;;;;;;5095590;28;20146;-76
2021/10/08 13:28:56;;;;;;;3.27;1.10;;;;;;;;;;5113998;28;20214;-76
2021/10/08 13:31:26;;;;;;;3.10;0.70;;;;;;;;;;5113529;28;20124;-75
2021/10/08 13:33:54;;;;;;;2.33;0.70;;;;;;;;;;5113816;28;20130;-75
2021/10/08 13:36:22;;;;;;;2.35;0.70;;;;;;;;;;5113801;28;20039;-75
2021/10/08 13:38:51;;;;;;;1.48;0.70;;;;;;;;;;5095182;28;20044;-74
2021/10/08 13:41:21;;;;;;;4.97;0.90;;;;;;;;;;5113743;28;20038;-74
2021/10/08 13:43:49;;;;;;;2.03;1.38;;;;;;;;;;5113182;28;20118;-74
2021/10/08 13:46:18;;;;;;;2.05;0.90;;;;;;;;;;5113219;28;20051;-76
2021/10/08 13:48:45;;;;;;;2.47;0.90;;;;;;;;;;5113737;28;20494;-75
2021/10/08 13:51:17;;;;;;;1.45;0.75;;;;;;;;;;5113238;28;20126;-74
2021/10/08 13:53:45;;;;;;;7.22;0.95;;;;;;;;;;5113331;28;20563;-76
2021/10/08 13:56:15;;;;;;;1.00;0.50;;;;;;;;;;5095118;28;20118;-77
2021/10/08 13:58:43;;;;;;;1.70;0.70;;;;;;;;;;5084822;28;20051;-76
2021/10/08 14:01:14;;;;;;;4.25;1.02;;;;;;;;;;5095204;28;20036;-74
2021/10/08 14:03:59;;;;;;;2.88;1.10;;;;;;;;;;5094279;28;20043;-75
2021/10/08 14:06:53;;;;;;;3.40;0.93;;;;;;;;;;5093873;28;20042;-77
2021/10/08 14:12:10;;;;;;;6.53;0.85;;;;;;;;;;5100164;28;20046;-75
2021/10/08 14:14:37;;;;;;;2.63;1.00;;;;;;;;;;5112582;28;20058;-73
2021/10/08 14:17:05;;;;;;;3.40;1.20;;;;;;;;;;5112860;28;20046;-76
2021/10/08 14:19:33;;;;;;;4.03;1.20;;;;;;;;;;5112401;28;20408;-74
2021/10/08 14:22:00;;;;;;;3.15;1.30;;;;;;;;;;5112810;28;20039;-75
2021/10/08 14:24:29;;;;;;;3.03;0.98;;;;;;;;;;5095124;28;20050;-73
2021/10/08 14:26:58;;;;;;;7.50;3.45;;;;;;;;;;5109012;28;20075;-75
2021/10/08 14:29:27;;;;;;;12.68;4.10;;;;;;;;;;5113207;28;20650;-75
2021/10/08 14:31:56;;;;;;;10.68;3.92;;;;;;;;;;5112721;28;20047;-74
2021/10/08 14:34:24;;;;;;;7.47;2.65;;;;;;;;;;5112921;28;20078;-75
2021/10/08 14:36:51;;;;;;;6.38;2.17;;;;;;;;;;5112649;28;20042;-76
2021/10/08 14:39:29;;;;;;;5.90;2.83;;;;;;;;;;5112929;28;20488;-75
2021/10/08 14:42:02;;;;;;;5.28;2.50;;;;;;;;;;5094251;28;20396;-75
2021/10/08 14:44:32;;;;;;;4.63;2.42;;;;;;;;;;5105104;28;20119;-76
2021/10/08 14:47:00;;;;;;;4.43;2.67;;;;;;;;;;5094124;28;20070;-76
2021/10/08 14:49:28;;;;;;;6.22;2.60;;;;;;;;;;5092787;28;20040;-75
2021/10/08 14:51:56;;;;;;;7.88;2.53;;;;;;;;;;5093053;28;20081;-76
2021/10/08 14:54:35;;;;;;;3.92;1.50;;;;;;;;;;5093014;28;20505;-74
2021/10/08 14:57:24;;;;;;;7.13;1.52;;;;;;;;;;5075626;28;20032;-75
2021/10/08 14:59:52;;;;;;;4.50;1.65;;;;;;;;;;5075546;28;20067;-76
2021/10/08 15:02:20;;;;;;;4.50;2.30;;;;;;;;;;5075762;28;20134;-77
2021/10/08 15:04:48;;;;;;;7.63;2.55;;;;;;;;;;5094017;28;20122;-73
2021/10/08 15:07:16;;;;;;;4.47;2.42;;;;;;;;;;5093356;28;20543;-77
2021/10/08 15:09:43;;;;;;;4.78;2.30;;;;;;;;;;5093894;28;20445;-75
2021/10/08 15:12:12;;;;;;;7.93;2.83;;;;;;;;;;5093582;28;20130;-76